createdAt,value
2023-04-25T00:00:20.243Z,2.20
2023-04-25T00:02:48.227Z,2.20
2023-04-25T00:05:17.403Z,2.30
2023-04-25T00:07:44.974Z,2.30
2023-04-25T00:10:12.998Z,2.30
2023-04-25T00:12:42.623Z,2.20
2023-04-25T00:15:11.039Z,2.30
2023-04-25T00:17:39.648Z,2.20
2023-04-25T00:20:11.231Z,2.10
2023-04-25T00:22:38.807Z,2.00
2023-04-25T00:25:07.526Z,2.10
2023-04-25T00:27:34.986Z,2.20
2023-04-25T00:30:02.526Z,2.10
2023-04-25T00:32:30.184Z,2.10
2023-04-25T00:34:58.886Z,2.10
2023-04-25T00:37:26.389Z,2.10
2023-04-25T00:39:54.915Z,2.00
2023-04-25T00:42:22.575Z,2.10
2023-04-25T00:44:51.213Z,2.00
2023-04-25T00:47:18.734Z,2.00
2023-04-25T00:49:46.301Z,2.10
2023-04-25T00:52:14.082Z,2.20
2023-04-25T00:54:41.916Z,2.10
2023-04-25T00:57:09.463Z,2.10
2023-04-25T00:59:38.690Z,2.10
2023-04-25T01:02:06.755Z,2.10
2023-04-25T01:04:34.516Z,2.10
2023-04-25T01:07:03.916Z,2.10
2023-04-25T01:09:33.218Z,2.20
2023-04-25T01:12:01.354Z,2.20
2023-04-25T01:14:28.867Z,2.20
2023-04-25T01:16:56.294Z,2.10
2023-04-25T01:19:24.907Z,2.10
2023-04-25T01:21:52.883Z,2.10
2023-04-25T01:24:20.455Z,2.10
2023-04-25T01:26:51.051Z,2.00
2023-04-25T01:29:20.374Z,2.00
2023-04-25T01:31:48.334Z,2.10
2023-04-25T01:34:15.943Z,2.00
2023-04-25T01:36:43.346Z,1.90
2023-04-25T01:39:10.917Z,1.90
2023-04-25T01:41:38.631Z,1.90
2023-04-25T01:44:06.121Z,1.80
2023-04-25T01:46:35.914Z,1.80
2023-04-25T01:49:04.005Z,1.80
2023-04-25T01:51:32.833Z,1.70
2023-04-25T01:54:01.158Z,1.60
2023-04-25T01:56:32.793Z,1.70
2023-04-25T01:59:00.591Z,1.70
2023-04-25T02:01:28.322Z,1.70
2023-04-25T02:03:56.496Z,1.70
2023-04-25T02:06:24.430Z,1.50
2023-04-25T02:08:51.844Z,1.60
2023-04-25T02:11:19.335Z,1.50
2023-04-25T02:13:46.762Z,1.60
2023-04-25T02:16:15.012Z,1.60
2023-04-25T02:18:42.556Z,1.60
2023-04-25T02:21:09.984Z,1.70
2023-04-25T02:23:37.673Z,1.70
2023-04-25T02:26:05.248Z,1.60
2023-04-25T02:28:32.707Z,1.60
2023-04-25T02:31:00.231Z,1.70
2023-04-25T02:33:27.679Z,1.70
2023-04-25T02:35:55.019Z,1.80
2023-04-25T02:38:22.352Z,1.70
2023-04-25T02:40:49.784Z,1.70
2023-04-25T02:43:17.401Z,1.80
2023-04-25T02:45:46.895Z,1.80
2023-04-25T02:48:14.391Z,1.70
2023-04-25T02:50:41.897Z,1.70
2023-04-25T02:53:09.351Z,1.80
2023-04-25T02:55:36.686Z,1.70
2023-04-25T02:58:04.196Z,1.70
2023-04-25T03:00:31.612Z,1.80
2023-04-25T03:02:59.226Z,1.80
2023-04-25T03:05:26.746Z,1.70
2023-04-25T03:07:54.113Z,1.70
2023-04-25T03:10:21.504Z,1.90
2023-04-25T03:12:48.847Z,1.90
2023-04-25T03:15:17.931Z,1.80
2023-04-25T03:17:45.309Z,1.80
2023-04-25T03:20:13.056Z,1.90
2023-04-25T03:22:40.701Z,1.70
2023-04-25T03:25:08.956Z,1.70
2023-04-25T03:27:36.301Z,1.70
2023-04-25T03:30:04.160Z,1.70
2023-04-25T03:32:31.708Z,1.70
2023-04-25T03:34:59.067Z,1.70
2023-04-25T03:37:26.632Z,1.70
2023-04-25T03:39:54.077Z,1.70
2023-04-25T03:42:24.091Z,1.80
2023-04-25T03:44:52.592Z,1.80
2023-04-25T03:47:20.069Z,1.80
2023-04-25T03:49:47.478Z,1.90
2023-04-25T03:52:14.817Z,1.90
2023-04-25T03:54:42.251Z,1.80
2023-04-25T03:57:09.669Z,1.90
2023-04-25T03:59:37.215Z,2.00
2023-04-25T04:02:04.813Z,1.90
2023-04-25T04:04:32.482Z,1.90
2023-04-25T04:07:00.034Z,2.00
2023-04-25T04:09:28.777Z,2.10
2023-04-25T04:11:56.155Z,2.00
2023-04-25T04:14:23.831Z,2.10
2023-04-25T04:16:53.462Z,2.00
2023-04-25T04:19:21.578Z,1.90
2023-04-25T04:21:49.100Z,1.90
2023-04-25T04:24:17.975Z,2.00
2023-04-25T04:26:46.242Z,2.10
2023-04-25T04:29:13.969Z,2.30
2023-04-25T04:31:41.590Z,2.30
2023-04-25T04:34:09.051Z,2.30
2023-04-25T04:36:36.438Z,2.30
2023-04-25T04:39:04.852Z,2.20
2023-04-25T04:41:32.220Z,2.20
2023-04-25T04:43:59.631Z,2.20
2023-04-25T04:46:27.089Z,2.20
2023-04-25T04:49:03.159Z,2.30
2023-04-25T04:51:31.370Z,2.30
2023-04-25T04:53:59.739Z,2.40
2023-04-25T04:56:27.119Z,2.50
2023-04-25T04:58:54.481Z,2.60
2023-04-25T05:01:21.914Z,2.50
2023-04-25T05:03:49.968Z,2.50
2023-04-25T05:06:19.930Z,2.70
2023-04-25T05:08:47.438Z,2.70
2023-04-25T05:11:14.917Z,2.70
2023-04-25T05:13:42.310Z,2.70
2023-04-25T05:16:09.693Z,2.80
2023-04-25T05:18:37.500Z,2.80
2023-04-25T05:21:05.038Z,2.80
2023-04-25T05:23:33.564Z,2.90
2023-04-25T05:26:01.393Z,3.00
2023-04-25T05:28:28.869Z,2.90
2023-04-25T05:30:56.259Z,2.90
2023-04-25T05:33:23.660Z,2.90
2023-04-25T05:35:51.578Z,2.90
2023-04-25T05:38:19.442Z,2.90
2023-04-25T05:40:47.297Z,3.00
2023-04-25T05:43:14.783Z,3.10
2023-04-25T05:45:42.338Z,3.20
2023-04-25T05:48:09.897Z,3.20
2023-04-25T05:50:37.329Z,3.10
2023-04-25T05:53:05.033Z,3.10
2023-04-25T05:55:32.443Z,3.10
2023-04-25T05:57:59.827Z,3.10
2023-04-25T06:00:27.619Z,3.10
2023-04-25T06:02:57.422Z,3.10
2023-04-25T06:05:25.013Z,3.00
2023-04-25T06:07:52.382Z,2.90
2023-04-25T06:10:19.837Z,3.10
2023-04-25T06:12:47.323Z,3.20
2023-04-25T06:15:27.249Z,3.10
2023-04-25T06:17:56.928Z,3.30
2023-04-25T06:20:25.713Z,3.40
2023-04-25T06:22:53.908Z,3.40
2023-04-25T06:25:22.386Z,3.50
2023-04-25T06:27:49.902Z,3.60
2023-04-25T06:30:19.518Z,3.60
2023-04-25T06:32:46.986Z,3.70
2023-04-25T06:35:14.532Z,3.50
2023-04-25T06:37:41.854Z,3.60
2023-04-25T06:40:09.872Z,3.50
2023-04-25T06:42:37.168Z,3.70
2023-04-25T06:45:05.004Z,3.70
2023-04-25T06:47:32.489Z,3.70
2023-04-25T06:49:59.803Z,3.70
2023-04-25T06:52:27.130Z,3.70
2023-04-25T06:54:54.518Z,3.80
2023-04-25T06:57:21.893Z,3.90
2023-04-25T06:59:49.327Z,3.90
2023-04-25T07:02:17.022Z,4.00
2023-04-25T07:04:44.669Z,4.10
2023-04-25T07:07:12.086Z,4.10
2023-04-25T07:09:39.639Z,4.10
2023-04-25T07:12:07.187Z,3.90
2023-04-25T07:14:34.660Z,3.80
2023-04-25T07:17:02.234Z,3.90
2023-04-25T07:19:32.434Z,3.90
2023-04-25T07:21:59.893Z,3.80
2023-04-25T07:24:27.381Z,3.80
2023-04-25T07:26:54.720Z,3.90
2023-04-25T07:29:25.230Z,3.90
2023-04-25T07:31:52.646Z,4.10
2023-04-25T07:34:20.060Z,4.10
2023-04-25T07:36:47.408Z,4.20
2023-04-25T07:39:15.083Z,4.20
2023-04-25T07:41:42.446Z,4.00
2023-04-25T07:44:09.788Z,4.00
2023-04-25T07:46:37.157Z,4.20
2023-04-25T07:49:04.600Z,4.40
2023-04-25T07:51:32.736Z,4.70
2023-04-25T07:54:00.861Z,4.80
2023-04-25T07:56:31.821Z,4.70
2023-04-25T07:59:06.453Z,4.80
2023-04-25T08:01:35.067Z,4.40
2023-04-25T08:04:02.649Z,4.60
2023-04-25T08:06:30.413Z,4.70
2023-04-25T08:08:58.137Z,4.80
2023-04-25T08:11:26.336Z,5.00
2023-04-25T08:13:53.721Z,5.20
2023-04-25T08:16:21.149Z,5.40
2023-04-25T08:18:48.801Z,5.50
2023-04-25T08:21:16.634Z,5.20
2023-04-25T08:23:44.011Z,5.30
2023-04-25T08:26:13.995Z,5.60
2023-04-25T08:32:41.548Z,5.70
2023-04-25T08:35:09.689Z,5.60
2023-04-25T08:37:37.501Z,5.50
2023-04-25T08:40:08.289Z,5.40
2023-04-25T08:42:36.798Z,5.50
2023-04-25T08:45:08.423Z,5.50
2023-04-25T08:47:36.085Z,5.80
2023-04-25T08:50:05.190Z,6.00
2023-04-25T08:52:44.456Z,6.20
2023-04-25T08:55:14.272Z,6.20
2023-04-25T08:57:44.762Z,6.40
2023-04-25T09:00:13.846Z,6.10
2023-04-25T09:02:41.498Z,6.40
2023-04-25T09:05:10.925Z,6.60
2023-04-25T09:07:40.609Z,6.80
2023-04-25T09:10:08.237Z,6.70
2023-04-25T09:12:36.884Z,6.90
2023-04-25T09:15:20.482Z,6.90
2023-04-25T09:17:57.382Z,7.00
2023-04-25T09:20:25.931Z,7.40
2023-04-25T09:23:03.972Z,7.40
2023-04-25T09:25:37.857Z,7.10
2023-04-25T09:28:07.466Z,7.00
2023-04-25T09:30:36.129Z,7.10
2023-04-25T09:33:12.532Z,7.20
2023-04-25T09:35:44.136Z,7.10
2023-04-25T09:38:16.127Z,7.30
2023-04-25T09:40:46.234Z,7.40
2023-04-25T09:43:26.586Z,7.50
2023-04-25T09:45:59.156Z,7.50
2023-04-25T09:48:28.292Z,8.10
2023-04-25T09:51:14.929Z,8.30
2023-04-25T09:53:53.097Z,8.50
2023-04-25T09:56:22.885Z,8.70
2023-04-25T09:58:54.587Z,8.50
2023-04-25T10:01:24.492Z,8.10
2023-04-25T10:03:52.801Z,8.30
2023-04-25T10:06:23.544Z,8.20
2023-04-25T10:08:54.788Z,8.20
2023-04-25T10:11:24.302Z,8.50
2023-04-25T10:13:52.230Z,8.30
2023-04-25T10:16:19.945Z,8.20
2023-04-25T10:18:48.279Z,8.00
2023-04-25T10:21:17.041Z,8.10
2023-04-25T10:23:44.868Z,8.40
2023-04-25T10:26:13.975Z,8.80
2023-04-25T10:29:00.430Z,9.10
2023-04-25T10:31:27.940Z,8.90
2023-04-25T10:33:55.495Z,8.70
2023-04-25T10:36:25.523Z,8.70
2023-04-25T10:38:53.774Z,8.80
2023-04-25T10:41:22.450Z,9.00
2023-04-25T10:43:52.366Z,9.30
2023-04-25T10:46:32.822Z,9.20
2023-04-25T10:49:01.698Z,9.30
2023-04-25T10:51:47.288Z,9.60
2023-04-25T10:54:21.320Z,9.60
2023-04-25T10:56:51.320Z,9.40
2023-04-25T10:59:20.005Z,9.00
2023-04-25T11:01:50.391Z,9.10
2023-04-25T11:04:24.416Z,9.00
2023-04-25T11:07:11.839Z,9.30
2023-04-25T11:09:42.442Z,9.30
2023-04-25T11:12:12.758Z,9.50
2023-04-25T11:17:12.992Z,8.80
2023-04-25T11:19:42.739Z,8.90
2023-04-25T11:22:11.832Z,9.10
2023-04-25T11:24:39.276Z,8.80
2023-04-25T11:27:09.423Z,8.40
2023-04-25T11:29:36.617Z,8.70
2023-04-25T11:32:03.879Z,8.80
2023-04-25T11:34:32.265Z,8.90
2023-04-25T11:37:00.772Z,9.10
2023-04-25T11:39:31.296Z,8.80
2023-04-25T11:41:58.629Z,9.00
2023-04-25T11:44:27.305Z,8.90
2023-04-25T11:46:54.420Z,9.00
2023-04-25T11:49:23.132Z,9.00
2023-04-25T11:51:50.858Z,8.80
2023-04-25T11:54:18.077Z,8.90
2023-04-25T11:56:46.316Z,8.90
2023-04-25T11:59:14.239Z,8.90
2023-04-25T12:01:50.049Z,9.10
2023-04-25T12:04:22.408Z,9.40
2023-04-25T12:06:55.735Z,9.40
2023-04-25T12:09:30.650Z,9.60
2023-04-25T12:11:59.966Z,9.10
2023-04-25T12:14:29.318Z,9.20
2023-04-25T12:17:00.932Z,9.10
2023-04-25T12:19:34.501Z,8.90
2023-04-25T12:22:19.691Z,8.80
2023-04-25T12:24:46.903Z,9.10
2023-04-25T12:27:21.190Z,9.10
2023-04-25T12:29:53.779Z,9.20
2023-04-25T12:32:20.979Z,9.30
2023-04-25T12:34:48.285Z,9.20
2023-04-25T12:37:15.632Z,9.20
2023-04-25T12:39:42.961Z,9.30
2023-04-25T12:42:13.030Z,9.00
2023-04-25T12:44:41.064Z,9.10
2023-04-25T12:47:08.786Z,9.10
2023-04-25T12:49:36.064Z,9.30
2023-04-25T12:52:03.565Z,9.40
2023-04-25T12:54:30.851Z,9.00
2023-04-25T12:56:58.481Z,9.20
2023-04-25T12:59:25.596Z,9.20
2023-04-25T13:01:52.847Z,9.40
2023-04-25T13:04:22.308Z,9.40
2023-04-25T13:06:52.400Z,9.30
2023-04-25T13:09:19.567Z,9.20
2023-04-25T13:11:47.117Z,9.10
2023-04-25T13:14:14.308Z,9.10
2023-04-25T13:16:44.375Z,9.10
2023-04-25T13:19:12.636Z,9.00
2023-04-25T13:21:39.768Z,8.80
2023-04-25T13:24:07.266Z,9.00
2023-04-25T13:26:34.444Z,9.20
2023-04-25T13:29:03.625Z,9.50
2023-04-25T13:31:33.587Z,9.80
2023-04-25T13:34:00.726Z,10.00
2023-04-25T13:36:28.998Z,10.00
2023-04-25T13:38:56.344Z,9.90
2023-04-25T13:41:23.800Z,10.00
2023-04-25T13:43:51.190Z,9.80
2023-04-25T13:48:49.794Z,9.80
2023-04-25T13:51:18.694Z,10.00
2023-04-25T13:53:46.637Z,9.90
2023-04-25T13:56:13.967Z,10.00
2023-04-25T13:58:41.327Z,9.90
2023-04-25T14:01:08.697Z,9.90
2023-04-25T14:03:36.030Z,9.90
2023-04-25T14:06:03.209Z,9.90
2023-04-25T14:08:30.400Z,10.10
2023-04-25T14:10:57.566Z,10.10
2023-04-25T14:13:25.018Z,10.10
2023-04-25T14:15:52.220Z,10.20
2023-04-25T14:18:20.464Z,10.00
2023-04-25T14:20:48.173Z,9.90
2023-04-25T14:23:15.297Z,9.60
2023-04-25T14:25:43.183Z,9.90
2023-04-25T14:28:11.381Z,9.70
2023-04-25T14:30:38.525Z,9.90
2023-04-25T14:33:06.432Z,10.00
2023-04-25T14:35:33.722Z,10.30
2023-04-25T14:38:01.069Z,10.50
2023-04-25T14:40:28.133Z,10.40
2023-04-25T14:42:55.708Z,10.40
2023-04-25T14:45:22.905Z,10.40
2023-04-25T14:47:50.297Z,10.30
2023-04-25T14:50:19.206Z,10.20
2023-04-25T14:52:46.990Z,9.90
2023-04-25T14:55:14.153Z,9.90
2023-04-25T14:57:41.332Z,9.90
2023-04-25T15:00:10.630Z,10.00
2023-04-25T15:02:38.394Z,9.90
2023-04-25T15:05:06.257Z,9.70
2023-04-25T15:07:33.451Z,9.70
2023-04-25T15:10:01.645Z,9.90
2023-04-25T15:12:29.440Z,9.30
2023-04-25T15:14:56.762Z,9.20
2023-04-25T15:17:23.917Z,9.50
2023-04-25T15:19:51.154Z,9.60
2023-04-25T15:22:18.386Z,9.60
2023-04-25T15:24:45.531Z,9.20
2023-04-25T15:27:13.737Z,9.50
2023-04-25T15:29:41.323Z,9.50
2023-04-25T15:32:08.588Z,9.70
2023-04-25T15:34:36.464Z,9.80
2023-04-25T15:37:04.028Z,9.70
2023-04-25T15:39:31.308Z,9.40
2023-04-25T15:41:59.413Z,9.40
2023-04-25T15:44:26.526Z,9.40
2023-04-25T15:46:55.185Z,9.10
2023-04-25T15:49:24.371Z,9.00
2023-04-25T15:51:51.969Z,9.20
2023-04-25T15:54:19.235Z,9.10
2023-04-25T15:56:47.141Z,9.10
2023-04-25T15:59:14.617Z,9.10
2023-04-25T16:01:41.850Z,9.20
2023-04-25T16:04:09.288Z,9.20
2023-04-25T16:06:36.505Z,9.10
2023-04-25T16:09:04.681Z,9.10
2023-04-25T16:11:31.847Z,9.00
2023-04-25T16:13:58.990Z,9.00
2023-04-25T16:16:26.570Z,9.00
2023-04-25T16:18:53.774Z,9.00
2023-04-25T16:21:21.386Z,9.10
2023-04-25T16:23:48.620Z,9.10
2023-04-25T16:26:15.944Z,9.30
2023-04-25T16:28:43.043Z,9.40
2023-04-25T16:31:10.274Z,9.40
2023-04-25T16:33:37.551Z,9.60
2023-04-25T16:36:05.879Z,9.60
2023-04-25T16:38:32.985Z,9.50
2023-04-25T16:41:00.146Z,9.20
2023-04-25T16:43:27.273Z,9.40
2023-04-25T16:45:54.361Z,9.30
2023-04-25T16:48:24.554Z,9.40
2023-04-25T16:50:54.045Z,9.30
2023-04-25T16:53:22.461Z,9.30
2023-04-25T16:55:49.674Z,9.10
2023-04-25T16:58:17.031Z,8.90
2023-04-25T17:00:44.471Z,8.90
2023-04-25T17:03:11.862Z,9.10
2023-04-25T17:05:39.309Z,9.20
2023-04-25T17:08:07.108Z,9.20
2023-04-25T17:10:35.034Z,9.00
2023-04-25T17:13:02.096Z,8.80
2023-04-25T17:15:29.367Z,8.70
2023-04-25T17:17:56.599Z,8.70
2023-04-25T17:20:23.952Z,8.60
2023-04-25T17:22:51.078Z,8.60
2023-04-25T17:25:18.256Z,8.40
2023-04-25T17:27:45.368Z,8.50
2023-04-25T17:30:13.552Z,8.50
2023-04-25T17:32:40.847Z,8.50
2023-04-25T17:35:08.358Z,8.40
2023-04-25T17:37:35.552Z,8.20
2023-04-25T17:40:05.077Z,8.10
2023-04-25T17:42:32.346Z,7.90
2023-04-25T17:44:59.490Z,7.70
2023-04-25T17:47:26.720Z,7.60
2023-04-25T17:49:54.861Z,7.50
2023-04-25T17:52:22.203Z,7.40
2023-04-25T17:54:49.847Z,7.30
2023-04-25T17:57:17.303Z,7.20
2023-04-25T17:59:44.499Z,7.10
2023-04-25T18:02:11.874Z,6.90
2023-04-25T18:04:39.324Z,6.70
2023-04-25T18:07:07.624Z,6.70
2023-04-25T18:09:35.032Z,6.60
2023-04-25T18:12:03.749Z,6.50
2023-04-25T18:14:31.076Z,6.60
2023-04-25T18:17:01.044Z,6.60
2023-04-25T18:19:28.157Z,6.50
2023-04-25T18:21:56.214Z,6.60
2023-04-25T18:24:27.129Z,6.60
2023-04-25T18:26:56.350Z,6.60
2023-04-25T18:29:32.921Z,6.60
2023-04-25T18:32:01.539Z,6.70
2023-04-25T18:34:28.995Z,6.60
2023-04-25T18:36:57.327Z,6.60
2023-04-25T18:39:26.278Z,6.70
2023-04-25T18:42:01.391Z,6.70
2023-04-25T18:44:40.224Z,6.70
2023-04-25T18:47:08.573Z,6.60
2023-04-25T18:49:35.868Z,6.60
2023-04-25T18:52:03.836Z,6.60
2023-04-25T18:54:32.091Z,6.60
2023-04-25T18:57:01.431Z,6.50
2023-04-25T18:59:28.716Z,6.50
2023-04-25T19:01:57.385Z,6.50
2023-04-25T19:04:24.919Z,6.50
2023-04-25T19:06:52.469Z,6.50
2023-04-25T19:09:20.148Z,6.50
2023-04-25T19:11:48.412Z,6.40
2023-04-25T19:14:17.900Z,6.40
2023-04-25T19:16:45.128Z,6.50
2023-04-25T19:19:13.220Z,6.50
2023-04-25T19:21:42.295Z,6.60
2023-04-25T19:24:10.222Z,6.60
2023-04-25T19:26:37.455Z,6.70
2023-04-25T19:29:14.763Z,6.70
2023-04-25T19:31:45.378Z,6.50
2023-04-25T19:34:13.306Z,6.50
2023-04-25T19:36:44.365Z,6.50
2023-04-25T19:39:13.506Z,6.60
2023-04-25T19:41:44.013Z,6.60
2023-04-25T19:44:12.984Z,6.70
2023-04-25T19:46:44.753Z,6.60
2023-04-25T19:49:13.007Z,6.70
2023-04-25T19:51:40.437Z,6.80
2023-04-25T19:54:07.853Z,6.70
2023-04-25T19:56:38.633Z,6.60
2023-04-25T19:59:06.726Z,6.50
2023-04-25T20:01:33.907Z,6.50
2023-04-25T20:04:02.236Z,6.50
2023-04-25T20:06:29.491Z,6.50
2023-04-25T20:08:56.687Z,6.50
2023-04-25T20:11:24.444Z,6.60
2023-04-25T20:13:52.258Z,6.60
2023-04-25T20:16:21.834Z,6.50
2023-04-25T20:18:49.606Z,6.60
2023-04-25T20:21:17.450Z,6.50
2023-04-25T20:23:46.924Z,6.50
2023-04-25T20:26:14.360Z,6.50
2023-04-25T20:28:42.143Z,6.40
2023-04-25T20:31:11.238Z,6.40
2023-04-25T20:33:38.937Z,6.40
2023-04-25T20:36:06.267Z,6.50
2023-04-25T20:38:35.906Z,6.40
2023-04-25T20:41:03.794Z,6.40
2023-04-25T20:43:31.550Z,6.30
2023-04-25T20:46:00.190Z,6.40
2023-04-25T20:48:30.073Z,6.30
2023-04-25T20:50:58.630Z,6.30
2023-04-25T20:53:26.354Z,6.30
2023-04-25T20:55:53.532Z,6.10
2023-04-25T20:58:21.734Z,6.30
2023-04-25T21:00:50.637Z,6.10
2023-04-25T21:03:18.060Z,6.10
2023-04-25T21:05:45.212Z,6.00
2023-04-25T21:08:12.535Z,6.20
2023-04-25T21:10:39.845Z,6.20
2023-04-25T21:13:10.379Z,6.30
2023-04-25T21:15:37.525Z,6.40
2023-04-25T21:18:04.831Z,6.40
2023-04-25T21:20:32.672Z,6.30
2023-04-25T21:23:00.010Z,6.30
2023-04-25T21:25:31.598Z,6.30
2023-04-25T21:28:00.004Z,6.40
2023-04-25T21:30:27.716Z,6.30
2023-04-25T21:32:55.091Z,6.20
2023-04-25T21:35:22.794Z,6.00
2023-04-25T21:37:50.822Z,5.90
2023-04-25T21:40:18.223Z,5.90
2023-04-25T21:42:51.456Z,5.80
2023-04-25T21:45:20.071Z,5.80
2023-04-25T21:47:48.024Z,5.80
2023-04-25T21:50:16.038Z,5.80
2023-04-25T21:52:43.321Z,5.70
2023-04-25T21:55:11.688Z,5.60
2023-04-25T21:57:38.904Z,5.60
2023-04-25T22:00:20.298Z,5.50
2023-04-25T22:02:48.454Z,5.50
2023-04-25T22:05:16.263Z,5.50
2023-04-25T22:07:43.517Z,5.50
2023-04-25T22:10:11.083Z,5.60
2023-04-25T22:12:38.294Z,5.60
2023-04-25T22:15:09.496Z,5.50
2023-04-25T22:17:37.060Z,5.60
2023-04-25T22:20:09.900Z,5.80
2023-04-25T22:22:37.004Z,5.70
2023-04-25T22:25:04.378Z,5.60
2023-04-25T22:27:31.540Z,5.60
2023-04-25T22:29:58.675Z,5.50
2023-04-25T22:32:26.424Z,5.40
2023-04-25T22:34:55.387Z,5.50
2023-04-25T22:37:22.449Z,5.40
2023-04-25T22:39:49.593Z,5.40
2023-04-25T22:42:16.794Z,5.30
2023-04-25T22:44:43.960Z,5.40
2023-04-25T22:47:11.184Z,5.40
2023-04-25T22:49:38.472Z,5.50
2023-04-25T22:52:08.565Z,5.50
2023-04-25T22:54:36.344Z,5.40
2023-04-25T22:57:07.446Z,5.30
2023-04-25T22:59:36.788Z,5.30
2023-04-25T23:02:04.230Z,5.30
2023-04-25T23:04:31.730Z,5.40
2023-04-25T23:06:58.902Z,5.30
2023-04-25T23:09:26.189Z,5.30
2023-04-25T23:11:53.801Z,5.20
2023-04-25T23:14:21.369Z,5.20
2023-04-25T23:16:48.452Z,5.30
2023-04-25T23:19:15.615Z,5.20
2023-04-25T23:21:42.790Z,5.30
2023-04-25T23:24:10.045Z,5.30
2023-04-25T23:26:37.124Z,5.40
2023-04-25T23:29:05.244Z,5.50
2023-04-25T23:31:32.426Z,5.40
2023-04-25T23:33:59.749Z,5.40
2023-04-25T23:36:27.098Z,5.40
2023-04-25T23:38:56.018Z,5.30
2023-04-25T23:41:23.168Z,5.40
2023-04-25T23:43:50.263Z,5.30
2023-04-25T23:46:17.427Z,5.30
2023-04-25T23:48:47.652Z,5.40
2023-04-25T23:51:14.982Z,5.40
2023-04-25T23:53:42.073Z,5.30
2023-04-25T23:56:09.903Z,5.40
2023-04-25T23:58:37.088Z,5.40
